Time;durP1;ratioP1;P1;durP2;ratioP2;P2;SDS_P1;SDS_P2;PMS_P1;PMS_P2;Temp;Humidity;BMP_temperature;BMP_pressure;BME280_temperature;BME280_humidity;BME280_pressure;Samples;Min_cycle;Max_cycle;Signal;HPM_P1;HPM_P2
2021/05/11 00:01:15;;;;;;;2.30;1.77;;;15.60;1.00;;;;;;5100218;27;20215;-70
2021/05/11 00:03:43;;;;;;;2.83;1.93;;;15.60;1.00;;;;;;5092616;27;25104;-70
2021/05/11 00:06:09;;;;;;;2.20;1.90;;;15.60;1.00;;;;;;5086715;27;20181;-70
2021/05/11 00:08:35;;;;;;;3.37;2.40;;;15.50;1.00;;;;;;5082744;27;20709;-70
2021/05/11 00:11:00;;;;;;;3.20;1.90;;;15.40;1.00;;;;;;5098689;27;20234;-70
2021/05/11 00:13:26;;;;;;;2.77;2.50;;;15.40;1.00;;;;;;5094479;27;20193;-71
2021/05/11 00:15:52;;;;;;;2.47;2.07;;;15.40;1.00;;;;;;5098045;27;20194;-71
2021/05/11 00:18:17;;;;;;;2.90;2.40;;;15.40;1.00;;;;;;5101294;27;20227;-71
2021/05/11 00:20:43;;;;;;;3.53;2.67;;;15.30;1.00;;;;;;5093458;27;20915;-71
2021/05/11 00:23:09;;;;;;;3.10;2.17;;;15.30;1.00;;;;;;5071445;27;20196;-70
2021/05/11 00:25:35;;;;;;;3.17;2.77;;;15.20;1.00;;;;;;5091406;27;20229;-71
2021/05/11 00:28:02;;;;;;;3.37;2.70;;;15.10;1.00;;;;;;5094389;27;20188;-71
2021/05/11 00:30:27;;;;;;;3.93;2.67;;;14.90;1.00;;;;;;5098016;27;20185;-70
2021/05/11 00:32:53;;;;;;;5.30;3.27;;;14.90;1.00;;;;;;5103303;27;20448;-70
2021/05/11 00:35:19;;;;;;;3.83;3.50;;;14.80;1.00;;;;;;5093385;27;20745;-71
2021/05/11 00:37:45;;;;;;;3.47;3.10;;;14.60;1.00;;;;;;5090016;27;20316;-71
2021/05/11 00:40:12;;;;;;;4.03;3.67;;;14.50;1.00;;;;;;5089091;27;20519;-71
2021/05/11 00:42:38;;;;;;;4.10;3.20;;;14.40;19.80;;;;;;5097167;27;20747;-71
2021/05/11 00:45:05;;;;;;;4.60;3.60;;;14.40;90.40;;;;;;5097576;27;20486;-71
2021/05/11 00:47:31;;;;;;;4.83;3.07;;;14.40;99.90;;;;;;5095126;27;21047;-71
2021/05/11 00:49:57;;;;;;;4.30;3.17;;;14.50;99.90;;;;;;5090857;27;20476;-71
2021/05/11 00:52:23;;;;;;;8.70;3.53;;;14.40;99.90;;;;;;5092372;27;20445;-71
2021/05/11 00:54:49;;;;;;;5.33;3.77;;;14.40;99.90;;;;;;5095951;27;20203;-71
2021/05/11 00:57:16;;;;;;;4.10;3.70;;;14.30;99.90;;;;;;5096651;27;20448;-71
2021/05/11 00:59:42;;;;;;;6.67;4.63;;;14.30;99.90;;;;;;5096684;27;20953;-71
2021/05/11 01:02:09;;;;;;;7.50;4.30;;;14.30;99.90;;;;;;5099145;27;20490;-71
2021/05/11 01:04:36;;;;;;;4.30;3.80;;;14.30;99.90;;;;;;5094878;27;20459;-71
2021/05/11 01:07:02;;;;;;;5.23;3.90;;;14.30;99.90;;;;;;5098646;27;20487;-71
2021/05/11 01:09:28;;;;;;;5.10;3.60;;;14.30;99.90;;;;;;5102774;27;20576;-70
2021/05/11 01:11:56;;;;;;;3.50;3.20;;;14.20;99.90;;;;;;5094533;27;21066;-70
2021/05/11 01:14:29;;;;;;;4.37;3.60;;;14.20;99.90;;;;;;5105457;27;20433;-71
2021/05/11 01:16:58;;;;;;;6.53;3.87;;;14.20;99.90;;;;;;5105723;27;20620;-70
2021/05/11 01:24:41;;;;;;;4.80;3.40;;;14.20;99.90;;;;;;5096464;27;20943;-71
2021/05/11 01:29:55;;;;;;;4.30;3.83;;;14.20;1.00;;;;;;5084666;27;20440;-71
2021/05/11 01:43:50;;;;;;;5.23;4.20;;;14.20;99.90;;;;;;5099168;27;20461;-70
2021/05/11 01:51:44;;;;;;;5.70;3.80;;;14.00;1.00;;;;;;5103018;27;20456;-70
2021/05/11 02:17:59;;;;;;;4.63;4.23;;;14.10;99.90;;;;;;5100730;27;20860;-71
2021/05/11 02:23:29;;;;;;;3.77;3.47;;;14.20;4.20;;;;;;5097776;27;20438;-71
2021/05/11 02:25:56;;;;;;;4.40;3.97;;;14.20;99.90;;;;;;5096359;27;20454;-72
2021/05/11 02:28:23;;;;;;;4.90;4.50;;;14.10;1.00;;;;;;5095986;27;20510;-71
2021/05/11 02:30:48;;;;;;;6.60;4.27;;;14.10;99.90;;;;;;5095907;27;20477;-71
2021/05/11 02:33:14;;;;;;;4.30;3.90;;;14.20;1.00;;;;;;5089156;27;20462;-71
2021/05/11 02:35:40;;;;;;;4.10;3.70;;;14.10;63.40;;;;;;5094235;27;20184;-72
2021/05/11 02:38:05;;;;;;;4.57;4.17;;;14.10;1.00;;;;;;5096707;27;20208;-71
2021/05/11 02:40:31;;;;;;;4.77;4.37;;;14.10;1.00;;;;;;5098360;27;20201;-71
2021/05/11 02:43:20;;;;;;;4.50;4.10;;;14.00;99.90;;;;;;5098455;27;20176;-71
2021/05/11 02:45:43;;;;;;;4.07;3.67;;;14.00;99.90;;;;;;5095660;27;20574;-71
2021/05/11 02:48:08;;;;;;;4.13;3.73;;;14.00;99.90;;;;;;5097303;27;20437;-71
2021/05/11 02:50:34;;;;;;;5.47;3.90;;;14.00;99.90;;;;;;5076517;27;20195;-71
2021/05/11 02:53:01;;;;;;;3.70;3.40;;;14.00;1.00;;;;;;5094787;27;20189;-71
2021/05/11 02:55:27;;;;;;;5.00;4.50;;;14.00;1.00;;;;;;5093393;27;20464;-71
2021/05/11 02:57:54;;;;;;;4.77;4.07;;;14.00;1.00;;;;;;5095284;27;20509;-71
2021/05/11 03:00:22;;;;;;;4.50;4.10;;;14.00;1.00;;;;;;5097881;27;21004;-71
2021/05/11 03:02:47;;;;;;;4.43;3.70;;;14.00;99.90;;;;;;5097064;27;20453;-71
2021/05/11 03:05:14;;;;;;;4.27;3.87;;;13.90;99.90;;;;;;5098621;27;20479;-70
2021/05/11 03:07:40;;;;;;;4.17;3.80;;;13.90;99.90;;;;;;5080898;27;20223;-71
2021/05/11 03:10:09;;;;;;;6.97;4.33;;;13.90;1.00;;;;;;5097783;27;20672;-71
2021/05/11 03:12:34;;;;;;;4.30;3.90;;;13.90;1.00;;;;;;5096091;27;20431;-71
2021/05/11 03:15:01;;;;;;;5.30;4.37;;;13.90;99.90;;;;;;5085255;27;20886;-71
2021/05/11 03:17:27;;;;;;;4.50;4.10;;;13.90;99.90;;;;;;5075449;27;20189;-71
2021/05/11 03:19:53;;;;;;;4.83;4.43;;;13.90;99.90;;;;;;5095344;27;21917;-71
2021/05/11 03:22:19;;;;;;;4.30;3.90;;;13.90;65.90;;;;;;5088938;27;20439;-71
2021/05/11 03:24:45;;;;;;;4.80;4.03;;;13.90;99.90;;;;;;5093064;27;20945;-71
2021/05/11 03:27:15;;;;;;;7.63;3.97;;;13.90;43.40;;;;;;5085960;27;20448;-71
2021/05/11 03:29:42;;;;;;;4.20;3.80;;;13.90;4.60;;;;;;5097306;27;20196;-71
2021/05/11 03:32:08;;;;;;;4.57;4.03;;;13.90;99.90;;;;;;5077507;27;20510;-71
2021/05/11 03:34:38;;;;;;;5.23;4.70;;;13.90;99.90;;;;;;5098569;27;20545;-71
2021/05/11 03:37:05;;;;;;;5.23;3.70;;;13.90;1.00;;;;;;5101154;27;20454;-71
2021/05/11 03:39:36;;;;;;;6.00;4.60;;;13.90;97.90;;;;;;5102728;27;20467;-71
2021/05/11 03:42:06;;;;;;;4.60;4.20;;;13.90;99.90;;;;;;5105388;27;20570;-71
2021/05/11 03:44:34;;;;;;;4.83;4.33;;;13.90;1.00;;;;;;5103759;27;20452;-71
2021/05/11 03:46:59;;;;;;;3.77;3.40;;;13.90;52.60;;;;;;5101794;27;21372;-71
2021/05/11 03:49:25;;;;;;;4.10;3.60;;;14.00;87.70;;;;;;5104031;27;20449;-71
2021/05/11 03:51:51;;;;;;;4.13;3.73;;;13.90;99.90;;;;;;5114540;27;21734;-71
2021/05/11 03:54:16;;;;;;;5.73;4.83;;;13.80;99.90;;;;;;5102928;27;20714;-71
2021/05/11 03:56:42;;;;;;;4.80;4.37;;;13.90;99.90;;;;;;5103272;27;20209;-71
2021/05/11 03:59:08;;;;;;;5.40;4.07;;;13.90;1.00;;;;;;5107015;27;20568;-71
2021/05/11 04:01:34;;;;;;;5.17;4.67;;;13.80;99.90;;;;;;5102843;27;20186;-71
2021/05/11 04:04:00;;;;;;;6.23;4.60;;;13.80;1.00;;;;;;5099803;27;20176;-71
2021/05/11 04:06:25;;;;;;;7.40;5.20;;;13.80;1.00;;;;;;5102222;27;20470;-71
2021/05/11 04:08:57;;;;;;;5.17;4.57;;;13.90;1.00;;;;;;5095890;27;20814;-71
2021/05/11 04:16:24;;;;;;;4.93;4.37;;;13.90;1.00;;;;;;5097901;27;20196;-71
2021/05/11 04:18:50;;;;;;;4.87;4.47;;;13.90;1.00;;;;;;5102261;27;21185;-71
2021/05/11 04:21:17;;;;;;;5.30;4.80;;;13.90;99.90;;;;;;5100337;27;20487;-71
2021/05/11 04:23:44;;;;;;;6.40;5.80;;;13.90;1.00;;;;;;5101765;27;20449;-71
2021/05/11 04:26:11;;;;;;;6.00;5.40;;;13.80;99.90;;;;;;5089337;27;20489;-71
2021/05/11 04:28:37;;;;;;;5.83;5.27;;;13.80;99.90;;;;;;5077578;27;20443;-71
2021/05/11 04:31:04;;;;;;;5.07;4.67;;;13.80;1.00;;;;;;5080972;27;20466;-71
2021/05/11 04:33:29;;;;;;;5.70;5.20;;;13.80;1.00;;;;;;5098356;27;20866;-71
2021/05/11 04:35:55;;;;;;;6.50;5.10;;;13.80;44.10;;;;;;5084563;27;20449;-71
2021/05/11 04:38:22;;;;;;;5.67;5.17;;;13.80;43.70;;;;;;5092504;27;20208;-71
2021/05/11 04:40:48;;;;;;;5.80;5.20;;;13.80;29.80;;;;;;5091354;27;20809;-71
2021/05/11 04:43:15;;;;;;;5.70;5.20;;;13.80;12.90;;;;;;5088899;27;20542;-71
2021/05/11 04:45:40;;;;;;;7.90;5.17;;;13.70;1.00;;;;;;5068502;27;21774;-71
2021/05/11 04:48:07;;;;;;;5.20;4.70;;;13.70;1.00;;;;;;5096192;27;20462;-71
2021/05/11 04:50:33;;;;;;;11.63;5.30;;;13.90;99.90;;;;;;5089527;27;20721;-71
2021/05/11 04:52:58;;;;;;;5.30;4.80;;;14.50;1.00;;;;;;5083081;27;20751;-71
2021/05/11 04:55:25;;;;;;;6.67;5.97;;;14.80;99.90;;;;;;5092139;27;20198;-71
2021/05/11 04:57:50;;;;;;;6.40;5.80;;;14.70;99.90;;;;;;5093567;27;20823;-70
2021/05/11 05:00:17;;;;;;;5.60;4.77;;;15.30;45.80;;;;;;5089708;27;20468;-71
2021/05/11 05:02:44;;;;;;;6.27;5.33;;;15.10;46.30;;;;;;5092958;27;21745;-71
2021/05/11 05:05:11;;;;;;;5.97;5.47;;;14.80;99.90;;;;;;5109019;27;21424;-70
2021/05/11 05:07:38;;;;;;;5.77;5.27;;;14.60;99.90;;;;;;5103569;27;20984;-70
2021/05/11 05:10:04;;;;;;;6.20;5.00;;;14.70;99.90;;;;;;5103486;27;20438;-70
2021/05/11 05:12:30;;;;;;;6.53;5.07;;;14.60;99.90;;;;;;5094123;27;20446;-70
2021/05/11 05:14:56;;;;;;;7.93;6.03;;;14.50;99.90;;;;;;5101503;27;20430;-71
2021/05/11 05:17:21;;;;;;;6.73;5.50;;;14.40;99.90;;;;;;5093884;27;20233;-70
2021/05/11 05:19:47;;;;;;;7.20;6.20;;;14.30;99.90;;;;;;5092317;27;20304;-71
2021/05/11 05:22:13;;;;;;;7.10;6.10;;;14.30;99.90;;;;;;5093724;27;20764;-71
2021/05/11 05:24:45;;;;;;;7.27;6.50;;;14.20;99.90;;;;;;5092137;27;20225;-71
2021/05/11 05:29:48;;;;;;;6.97;6.20;;;14.30;1.00;;;;;;5093619;27;20794;-71
2021/05/11 05:32:14;;;;;;;7.07;6.37;;;14.40;99.90;;;;;;5087026;27;20442;-71
2021/05/11 05:34:41;;;;;;;7.23;6.00;;;14.30;99.90;;;;;;5096623;27;20452;-71
2021/05/11 05:37:07;;;;;;;9.47;6.47;;;14.10;99.90;;;;;;5107119;27;20443;-71
2021/05/11 05:42:05;;;;;;;7.23;6.53;;;14.10;1.00;;;;;;5082046;27;20454;-70
2021/05/11 05:44:32;;;;;;;7.13;6.37;;;14.20;99.90;;;;;;5095506;27;20453;-71
2021/05/11 05:46:57;;;;;;;8.43;6.53;;;14.30;99.90;;;;;;5086515;27;20870;-72
2021/05/11 05:49:26;;;;;;;7.10;6.40;;;15.10;99.90;;;;;;5095334;27;20489;-71
2021/05/11 05:51:52;;;;;;;12.20;6.57;;;15.10;70.20;;;;;;5086528;27;20192;-71
2021/05/11 05:54:18;;;;;;;7.67;6.67;;;14.80;99.90;;;;;;5088124;27;20504;-71
2021/05/11 05:56:43;;;;;;;8.50;6.93;;;14.90;99.90;;;;;;5100272;27;20210;-70
2021/05/11 05:59:09;;;;;;;8.40;6.60;;;14.60;99.90;;;;;;5099562;27;20850;-70
2021/05/11 06:01:35;;;;;;;8.47;5.87;;;14.50;99.90;;;;;;5085650;27;20206;-70
2021/05/11 06:04:07;;;;;;;7.33;6.20;;;14.70;99.90;;;;;;5076314;27;20185;-70
2021/05/11 06:06:33;;;;;;;7.07;5.90;;;14.90;99.90;;;;;;5083583;27;20998;-70
2021/05/11 06:09:00;;;;;;;7.93;5.97;;;15.00;99.90;;;;;;5086172;27;20449;-70
2021/05/11 06:14:17;;;;;;;5.67;5.10;;;15.20;62.90;;;;;;5067947;27;20910;-70
2021/05/11 06:19:27;;;;;;;7.80;5.97;;;15.10;26.60;;;;;;5081047;27;20830;-70
2021/05/11 06:21:53;;;;;;;9.47;6.27;;;15.50;7.40;;;;;;5091634;27;20993;-70
2021/05/11 06:24:19;;;;;;;7.50;5.33;;;15.50;2.70;;;;;;5082797;27;20194;-70
2021/05/11 06:26:48;;;;;;;8.33;4.90;;;15.40;3.20;;;;;;5084700;27;20224;-70
2021/05/11 06:29:14;;;;;;;6.60;5.10;;;15.50;1.00;;;;;;5085587;27;20474;-70
2021/05/11 06:31:40;;;;;;;8.40;5.73;;;15.70;1.00;;;;;;5085774;27;20839;-70
2021/05/11 06:34:07;;;;;;;10.20;5.57;;;15.80;1.00;;;;;;5085022;27;20455;-70
2021/05/11 06:36:33;;;;;;;6.80;6.10;;;16.00;1.00;;;;;;5081254;27;20218;-70
2021/05/11 06:39:00;;;;;;;10.17;5.07;;;15.80;1.00;;;;;;5088315;27;20476;-71
2021/05/11 06:41:27;;;;;;;8.93;6.07;;;15.90;1.00;;;;;;5067171;27;20199;-70
2021/05/11 06:44:00;;;;;;;5.63;4.07;;;15.80;1.00;;;;;;5085865;27;20728;-70
2021/05/11 06:54:36;;;;;;;8.77;5.57;;;15.40;1.00;;;;;;5085988;27;20447;-71
2021/05/11 06:57:02;;;;;;;7.03;5.87;;;15.20;17.20;;;;;;5088728;27;20453;-71
2021/05/11 06:59:29;;;;;;;8.97;6.43;;;15.00;18.90;;;;;;5095483;27;20462;-71
2021/05/11 07:01:55;;;;;;;7.17;6.33;;;14.80;79.00;;;;;;5087309;27;20940;-72
2021/05/11 07:04:20;;;;;;;10.80;7.33;;;14.70;99.90;;;;;;5082292;27;21016;-71
2021/05/11 07:06:46;;;;;;;7.30;6.40;;;14.40;99.90;;;;;;5067008;27;20271;-71
2021/05/11 07:09:15;;;;;;;10.70;7.40;;;14.50;99.90;;;;;;5085667;27;20189;-71
2021/05/11 07:14:07;;;;;;;11.90;7.90;;;14.70;99.90;;;;;;5088758;27;20848;-71
2021/05/11 07:16:33;;;;;;;11.47;8.20;;;14.80;99.90;;;;;;5086322;27;20187;-71
2021/05/11 07:18:59;;;;;;;11.13;7.33;;;14.90;99.90;;;;;;5087037;27;20486;-71
2021/05/11 07:21:24;;;;;;;14.30;7.60;;;15.00;99.90;;;;;;5091690;27;20771;-71
2021/05/11 07:23:50;;;;;;;13.17;8.20;;;15.00;99.90;;;;;;5083740;27;20546;-71
2021/05/11 07:31:26;;;;;;;11.27;8.73;;;15.00;99.90;;;;;;5080556;27;20510;-71
2021/05/11 07:33:54;;;;;;;10.10;7.53;;;15.10;99.90;;;;;;5089051;27;20480;-71
2021/05/11 07:36:20;;;;;;;10.03;8.37;;;14.90;99.90;;;;;;5090404;27;20643;-71
2021/05/11 07:38:46;;;;;;;14.20;8.47;;;14.90;99.90;;;;;;5085806;27;20549;-70
2021/05/11 07:41:14;;;;;;;10.13;7.60;;;14.90;99.90;;;;;;5086407;27;21602;-71
2021/05/11 07:43:41;;;;;;;10.73;7.20;;;14.90;99.90;;;;;;5067909;27;20807;-70
2021/05/11 08:02:31;;;;;;;9.40;8.00;;;15.00;41.50;;;;;;5099142;27;20444;-71
2021/05/11 08:15:57;;;;;;;12.13;8.63;;;15.50;29.60;;;;;;5095915;27;20469;-70
2021/05/11 08:29:05;;;;;;;11.27;8.90;;;15.70;1.00;;;;;;5091766;27;20440;-71
2021/05/11 08:31:30;;;;;;;11.00;8.17;;;15.60;1.00;;;;;;5093358;27;20849;-71
2021/05/11 08:33:56;;;;;;;8.60;7.70;;;15.70;1.00;;;;;;5097558;27;20654;-70
2021/05/11 08:36:22;;;;;;;9.83;8.43;;;15.70;1.00;;;;;;5099431;27;20660;-71
2021/05/11 08:38:47;;;;;;;11.57;8.23;;;15.70;1.00;;;;;;5092940;27;20219;-71
2021/05/11 08:41:14;;;;;;;10.17;8.87;;;15.60;1.00;;;;;;5097621;27;20197;-71
2021/05/11 08:43:44;;;;;;;10.93;9.07;;;15.60;1.00;;;;;;5095844;27;21637;-71
2021/05/11 08:46:11;;;;;;;9.33;8.47;;;15.60;1.00;;;;;;5098156;27;20814;-71
2021/05/11 08:48:37;;;;;;;9.50;8.50;;;15.60;1.00;;;;;;5105197;27;20479;-71
2021/05/11 08:51:16;;;;;;;9.60;8.60;;;15.80;1.00;;;;;;5096557;27;22086;-71
2021/05/11 08:54:10;;;;;;;15.43;9.43;;;15.90;1.00;;;;;;5096612;27;20178;-71
2021/05/11 09:27:35;;;;;;;7.57;6.87;;;16.40;1.00;;;;;;5103842;27;21165;-71
2021/05/11 09:54:31;;;;;;;5.60;5.10;;;16.70;1.00;;;;;;5103352;27;20449;-70
2021/05/11 09:58:07;;;;;;;7.70;5.97;;;16.50;1.00;;;;;;5079828;27;20468;-70
2021/05/11 10:32:32;;;;;;;4.83;4.10;;;15.80;1.00;;;;;;5095126;27;20447;-71
2021/05/11 10:40:23;;;;;;;6.20;5.10;;;15.70;1.00;;;;;;5101679;27;20702;-71
2021/05/11 10:48:22;;;;;;;6.67;4.10;;;15.90;1.00;;;;;;5111667;27;20439;-71
2021/05/11 10:50:49;;;;;;;6.27;4.30;;;16.00;1.00;;;;;;5080522;27;20533;-71
2021/05/11 10:53:51;;;;;;;5.23;4.80;;;16.10;1.00;;;;;;5093623;27;20445;-71
2021/05/11 10:56:40;;;;;;;4.00;3.60;;;16.30;1.00;;;;;;5091218;27;20439;-71
2021/05/11 11:01:58;;;;;;;4.77;4.10;;;16.50;1.00;;;;;;5099017;27;20436;-71
2021/05/11 11:04:26;;;;;;;7.90;3.83;;;16.60;1.00;;;;;;5090962;27;20779;-70
2021/05/11 11:09:54;;;;;;;5.40;3.20;;;16.70;1.00;;;;;;5097337;27;20448;-70
2021/05/11 11:12:21;;;;;;;4.20;2.57;;;16.60;1.00;;;;;;5068701;27;20459;-71
2021/05/11 11:14:47;;;;;;;3.67;2.30;;;16.70;1.00;;;;;;5091987;27;20447;-71
2021/05/11 11:17:16;;;;;;;4.27;2.60;;;16.70;1.00;;;;;;5096992;27;20456;-71
2021/05/11 11:19:56;;;;;;;4.73;3.20;;;16.60;1.00;;;;;;5098918;27;20216;-70
2021/05/11 11:25:07;;;;;;;4.10;2.93;;;16.60;1.00;;;;;;5094859;27;20450;-70
2021/05/11 11:27:33;;;;;;;3.07;2.20;;;16.80;1.00;;;;;;5103759;27;20457;-70
2021/05/11 11:30:10;;;;;;;3.23;2.50;;;16.90;1.00;;;;;;5097791;27;20451;-70
2021/05/11 11:32:37;;;;;;;3.13;2.33;;;16.60;1.00;;;;;;5091442;27;20514;-70
2021/05/11 11:35:05;;;;;;;2.20;2.00;;;16.70;1.00;;;;;;5096163;27;20983;-70
2021/05/11 11:37:31;;;;;;;2.27;2.07;;;16.60;1.00;;;;;;5095521;27;20868;-70
2021/05/11 11:40:03;;;;;;;7.60;2.80;;;16.50;1.00;;;;;;5094743;27;20967;-70
2021/05/11 11:42:33;;;;;;;4.60;2.27;;;16.30;1.00;;;;;;5094735;27;20454;-70
2021/05/11 11:45:02;;;;;;;2.97;2.37;;;16.40;1.00;;;;;;5077448;27;20489;-70
2021/05/11 11:47:30;;;;;;;5.13;2.60;;;16.50;1.00;;;;;;5097173;27;21027;-70
2021/05/11 11:50:03;;;;;;;5.47;4.20;;;16.50;1.00;;;;;;5099934;27;20467;-70
2021/05/11 12:00:34;;;;;;;12.47;7.70;;;16.40;1.00;;;;;;5084087;27;20486;-70
2021/05/11 12:03:09;;;;;;;9.70;7.33;;;16.10;1.00;;;;;;5087235;27;20448;-70
2021/05/11 12:05:37;;;;;;;12.93;7.70;;;16.00;1.00;;;;;;5096112;27;20936;-71
2021/05/11 12:10:51;;;;;;;8.80;7.17;;;15.80;1.00;;;;;;5097124;27;20461;-71
2021/05/11 12:13:25;;;;;;;9.40;7.60;;;16.00;1.00;;;;;;5095029;27;20868;-71
2021/05/11 12:16:11;;;;;;;6.63;5.93;;;16.00;1.00;;;;;;5097837;27;20461;-71
2021/05/11 12:18:41;;;;;;;6.90;6.23;;;16.00;1.00;;;;;;5095309;27;20819;-70
2021/05/11 12:21:07;;;;;;;8.13;7.17;;;16.00;1.00;;;;;;5094793;27;20440;-70
2021/05/11 12:23:34;;;;;;;7.57;6.30;;;15.90;1.00;;;;;;5095262;27;20485;-70
2021/05/11 12:26:06;;;;;;;6.20;5.53;;;16.00;1.00;;;;;;5098142;27;20192;-70
2021/05/11 12:28:38;;;;;;;6.37;5.77;;;16.10;1.00;;;;;;5095380;27;21281;-71
2021/05/11 12:31:07;;;;;;;9.73;5.50;;;16.20;1.00;;;;;;5095132;27;20464;-71
2021/05/11 12:33:38;;;;;;;8.87;7.37;;;16.30;1.00;;;;;;5095274;27;22140;-70
2021/05/11 12:36:23;;;;;;;8.30;6.73;;;16.30;1.00;;;;;;5094934;27;20812;-70
2021/05/11 12:38:50;;;;;;;7.57;6.87;;;16.30;1.00;;;;;;5089004;27;20458;-70
2021/05/11 12:41:31;;;;;;;11.27;7.93;;;15.80;1.00;;;;;;5087285;27;20477;-70
2021/05/11 12:43:57;;;;;;;8.43;7.50;;;15.60;1.00;;;;;;5070883;27;20457;-70
2021/05/11 12:46:31;;;;;;;10.13;7.47;;;15.50;1.00;;;;;;5090106;27;20455;-70
2021/05/11 12:49:01;;;;;;;11.10;7.67;;;15.50;1.00;;;;;;5082940;27;21426;-70
2021/05/11 12:51:36;;;;;;;8.50;7.70;;;15.50;1.00;;;;;;5081263;27;20438;-70
2021/05/11 12:54:40;;;;;;;9.30;8.00;;;15.50;1.00;;;;;;5082468;27;20448;-70
2021/05/11 13:00:01;;;;;;;11.07;9.33;;;15.40;1.00;;;;;;5086644;27;20467;-70
2021/05/11 13:22:24;;;;;;;10.20;9.20;;;15.10;30.10;;;;;;5084440;27;20438;-70
2021/05/11 13:33:26;;;;;;;9.23;8.10;;;15.10;1.00;;;;;;5059232;27;20707;-70
2021/05/11 13:35:49;;;;;;;11.03;8.73;;;15.10;8.80;;;;;;5082137;27;20462;-70
2021/05/11 13:38:14;;;;;;;9.83;8.47;;;15.20;22.20;;;;;;5061677;27;20453;-70
2021/05/11 13:40:40;;;;;;;10.10;7.77;;;15.20;3.80;;;;;;5082355;27;20286;-71
2021/05/11 13:43:06;;;;;;;8.93;7.93;;;15.20;1.00;;;;;;5084793;27;20995;-71
2021/05/11 13:45:32;;;;;;;8.70;7.83;;;15.30;1.00;;;;;;5079719;27;20192;-70
2021/05/11 13:48:01;;;;;;;7.23;6.53;;;15.30;1.00;;;;;;5082630;27;20790;-70
2021/05/11 13:50:35;;;;;;;8.00;7.00;;;15.20;1.00;;;;;;5080984;27;20188;-70
2021/05/11 13:53:01;;;;;;;8.63;6.83;;;15.20;1.00;;;;;;5080310;27;20894;-70
2021/05/11 13:55:35;;;;;;;10.27;7.07;;;15.10;1.50;;;;;;5083586;27;20551;-70
2021/05/11 14:03:31;;;;;;;8.50;7.70;;;14.60;7.30;;;;;;5090978;27;20455;-70
2021/05/11 14:05:56;;;;;;;9.80;7.47;;;14.70;41.30;;;;;;5086757;27;20749;-70
2021/05/11 14:08:22;;;;;;;7.40;6.60;;;14.80;59.80;;;;;;5082284;27;20869;-70
2021/05/11 14:10:48;;;;;;;9.60;7.67;;;14.90;42.70;;;;;;5084958;27;20810;-70
2021/05/11 14:13:14;;;;;;;8.93;7.17;;;14.90;37.20;;;;;;5085433;27;20193;-70
2021/05/11 14:15:39;;;;;;;8.00;7.20;;;14.90;58.20;;;;;;5087955;27;20706;-70
2021/05/11 14:18:05;;;;;;;8.97;8.07;;;14.80;47.20;;;;;;5088445;27;20372;-70
2021/05/11 14:20:30;;;;;;;9.80;7.53;;;14.70;73.60;;;;;;5087031;27;20208;-70
2021/05/11 14:22:57;;;;;;;7.97;7.10;;;14.70;99.90;;;;;;5087754;27;20186;-70
2021/05/11 14:25:22;;;;;;;9.87;8.33;;;14.60;99.90;;;;;;5085316;27;20253;-70
2021/05/11 14:27:48;;;;;;;8.90;7.90;;;14.70;99.90;;;;;;5050319;27;20453;-70
2021/05/11 14:30:15;;;;;;;11.20;8.90;;;14.80;99.90;;;;;;5085790;27;20187;-70
2021/05/11 14:32:41;;;;;;;10.33;9.23;;;14.80;99.90;;;;;;5085687;27;20637;-70
2021/05/11 14:35:07;;;;;;;9.57;7.87;;;14.90;99.90;;;;;;5084116;27;20694;-70
2021/05/11 14:37:33;;;;;;;8.90;8.00;;;15.00;99.90;;;;;;5082040;27;20302;-70
2021/05/11 14:39:59;;;;;;;9.70;8.73;;;15.10;99.90;;;;;;5089161;27;20510;-70
2021/05/11 14:42:24;;;;;;;9.07;7.90;;;15.00;99.90;;;;;;5082810;27;20203;-70
2021/05/11 14:44:52;;;;;;;12.10;7.90;;;15.20;99.90;;;;;;5091394;27;20190;-70
2021/05/11 14:47:18;;;;;;;10.23;8.00;;;15.30;99.90;;;;;;5086402;27;20180;-70
2021/05/11 14:49:44;;;;;;;9.97;8.77;;;15.20;99.90;;;;;;5088234;27;20475;-71
2021/05/11 14:52:12;;;;;;;9.43;7.87;;;15.10;99.90;;;;;;5085466;27;20819;-71
2021/05/11 14:54:39;;;;;;;8.50;7.33;;;15.10;99.90;;;;;;5085080;27;20185;-72
2021/05/11 14:57:05;;;;;;;9.97;8.90;;;15.20;99.90;;;;;;5082795;27;20459;-71
2021/05/11 14:59:30;;;;;;;10.43;8.60;;;15.10;99.90;;;;;;5087217;27;20556;-71
2021/05/11 15:01:56;;;;;;;9.80;8.80;;;15.20;99.90;;;;;;5084419;27;20184;-71
2021/05/11 15:04:21;;;;;;;10.97;9.07;;;15.20;99.90;;;;;;5086331;27;20188;-71
2021/05/11 15:06:47;;;;;;;8.73;7.40;;;15.20;99.90;;;;;;5089409;27;20209;-71
2021/05/11 15:09:13;;;;;;;9.50;8.50;;;15.20;99.90;;;;;;5087026;27;20286;-71
2021/05/11 15:11:39;;;;;;;9.33;8.33;;;15.30;99.90;;;;;;5087132;27;20193;-71
2021/05/11 15:14:05;;;;;;;11.90;7.40;;;15.30;99.90;;;;;;5087254;27;20451;-72
2021/05/11 15:16:35;;;;;;;7.90;7.10;;;15.30;99.90;;;;;;5083451;27;20666;-71
2021/05/11 15:19:01;;;;;;;8.00;7.20;;;15.30;99.90;;;;;;5062872;27;20531;-71
2021/05/11 15:21:27;;;;;;;10.33;5.60;;;15.50;69.70;;;;;;5085031;27;20443;-72
2021/05/11 15:23:52;;;;;;;6.40;5.70;;;15.80;16.90;;;;;;5087659;27;21888;-72
2021/05/11 15:26:19;;;;;;;6.90;5.43;;;16.00;1.00;;;;;;5088971;27;20630;-72
2021/05/11 15:28:51;;;;;;;8.40;6.77;;;16.10;1.00;;;;;;5092611;27;20197;-71
2021/05/11 15:31:16;;;;;;;10.57;7.77;;;16.20;1.00;;;;;;5084261;27;20470;-71
2021/05/11 15:33:42;;;;;;;7.17;6.43;;;15.90;1.00;;;;;;5107008;27;20534;-72
2021/05/11 15:36:08;;;;;;;9.40;7.00;;;15.60;7.10;;;;;;5080889;27;20598;-72
2021/05/11 15:38:34;;;;;;;8.43;7.43;;;15.40;26.60;;;;;;5099800;27;20208;-71
2021/05/11 15:41:00;;;;;;;13.27;7.67;;;15.30;93.00;;;;;;5099484;27;20543;-72
2021/05/11 15:43:26;;;;;;;12.83;9.00;;;15.20;99.90;;;;;;5097634;27;20455;-72
2021/05/11 15:45:52;;;;;;;8.70;7.37;;;14.90;99.90;;;;;;5100627;27;20446;-72
2021/05/11 15:48:18;;;;;;;10.37;8.40;;;14.80;1.00;;;;;;5083463;27;20925;-73
2021/05/11 15:50:46;;;;;;;18.20;10.60;;;14.70;99.90;;;;;;5098310;27;20184;-71
2021/05/11 15:53:15;;;;;;;14.67;12.80;;;14.60;99.90;;;;;;5106498;27;20434;-71
2021/05/11 15:55:43;;;;;;;14.73;11.90;;;14.50;99.90;;;;;;5079723;27;20495;-71
2021/05/11 15:58:11;;;;;;;15.57;13.47;;;14.20;1.00;;;;;;5092708;27;20461;-71
2021/05/11 16:00:39;;;;;;;18.10;13.60;;;14.00;1.00;;;;;;5081245;27;20477;-71
2021/05/11 16:03:05;;;;;;;16.00;13.07;;;14.00;99.90;;;;;;5097489;27;21244;-71
2021/05/11 16:05:35;;;;;;;12.83;11.47;;;13.90;99.90;;;;;;5095025;27;20453;-71
2021/05/11 16:08:03;;;;;;;18.33;13.03;;;13.80;99.90;;;;;;5079077;27;20941;-71
2021/05/11 16:10:28;;;;;;;14.43;12.30;;;13.70;99.90;;;;;;5096327;27;20444;-71
2021/05/11 16:12:55;;;;;;;17.47;14.37;;;13.70;99.90;;;;;;5074637;27;20901;-71
2021/05/11 16:15:22;;;;;;;17.30;14.47;;;13.70;99.90;;;;;;5082894;27;20768;-71
2021/05/11 16:17:48;;;;;;;18.23;15.33;;;13.60;99.90;;;;;;5085211;27;22065;-71
2021/05/11 16:20:14;;;;;;;19.87;14.37;;;13.70;99.90;;;;;;5089221;27;20528;-71
2021/05/11 16:22:41;;;;;;;16.70;12.43;;;13.70;99.90;;;;;;5087837;27;20438;-71
2021/05/11 16:25:09;;;;;;;14.87;13.23;;;13.80;99.90;;;;;;5085597;27;20196;-71
2021/05/11 16:27:35;;;;;;;14.87;13.27;;;13.80;99.90;;;;;;5088304;27;20460;-71
2021/05/11 16:30:01;;;;;;;15.27;13.57;;;13.80;99.90;;;;;;5086601;27;21041;-71
2021/05/11 16:32:27;;;;;;;14.80;12.23;;;13.80;99.90;;;;;;5064398;27;20776;-71
2021/05/11 16:34:52;;;;;;;14.03;11.77;;;13.90;99.90;;;;;;5091795;27;20189;-71
2021/05/11 16:37:18;;;;;;;14.07;12.57;;;13.90;99.90;;;;;;5108098;27;20340;-71
2021/05/11 16:39:44;;;;;;;14.80;12.80;;;13.90;99.90;;;;;;5083944;27;20249;-70
2021/05/11 16:42:10;;;;;;;15.73;12.07;;;13.90;99.90;;;;;;5087226;27;20489;-71
2021/05/11 16:44:36;;;;;;;17.83;13.30;;;13.90;99.90;;;;;;5087006;27;20287;-71
2021/05/11 16:47:03;;;;;;;16.13;12.87;;;13.90;99.90;;;;;;5106666;27;20446;-70
2021/05/11 16:49:28;;;;;;;17.00;14.40;;;13.90;99.90;;;;;;5110821;27;20454;-71
2021/05/11 16:51:54;;;;;;;15.90;12.77;;;13.90;99.90;;;;;;5113168;27;20962;-71
2021/05/11 16:54:20;;;;;;;16.90;13.40;;;14.00;99.90;;;;;;5106661;27;20179;-71
2021/05/11 16:56:46;;;;;;;17.13;15.03;;;14.10;99.90;;;;;;5079744;27;20627;-71
2021/05/11 16:59:12;;;;;;;18.60;13.50;;;14.10;99.90;;;;;;5081753;27;20215;-71
2021/05/11 17:01:38;;;;;;;17.80;14.27;;;14.10;99.90;;;;;;5062205;27;20894;-71
2021/05/11 17:04:05;;;;;;;20.20;13.87;;;14.10;99.90;;;;;;5062520;27;20176;-71
2021/05/11 17:06:33;;;;;;;18.00;14.77;;;14.10;99.90;;;;;;5074608;27;20440;-71
2021/05/11 17:09:06;;;;;;;17.77;14.50;;;14.10;99.90;;;;;;5093531;27;20450;-71
2021/05/11 17:11:34;;;;;;;17.70;14.10;;;14.10;99.90;;;;;;5091749;27;21275;-71
2021/05/11 17:14:00;;;;;;;17.93;15.07;;;14.00;99.90;;;;;;5100043;27;20886;-71
2021/05/11 17:16:26;;;;;;;25.77;17.33;;;14.10;99.90;;;;;;5099185;27;22649;-71
2021/05/11 17:18:52;;;;;;;22.33;16.57;;;14.00;99.90;;;;;;5099130;27;20473;-71
2021/05/11 17:21:18;;;;;;;18.20;15.90;;;14.00;99.90;;;;;;5100024;27;20189;-71
2021/05/11 17:23:44;;;;;;;18.70;14.57;;;14.00;99.90;;;;;;5099278;27;20770;-71
2021/05/11 17:26:10;;;;;;;27.63;18.40;;;14.00;99.90;;;;;;5103952;27;21014;-71